Portada
METAR-TAF:

METAR-TAF

Aeroports :

Hawarden, Gal·les

latitud: 53-10N, longitud: 002-59W, altitud: 10 m

Observació

L'informe es va fer fa 26 minuts, a les 11:50 UTC
Vent 7 kt del Sud/Sud-Est, variant entre Est/Sud-Est i Sud/Sud-Oest
Temperatura 18°C
Humitat 56%
Pressió 1026 hPa
Visibilitat 10 km o més
sense núvols per sota de 1500 mi sense presència de cumulonimbus.

METAR: EGNR 091150Z 15007KT 120V200 CAVOK 18/09 Q1026

Hora: 13:16 (12:16 UTC)

Pronòstic

L'informe es va fer fa 1 hora i 13 minuts, a les 11:03 UTC
Pronòstic vàlid del 09 a les 12 UTC al 09 a les 21 UTC
Vent 8 kt del Sud/Sud-Est
Visibilitat 10 km o més
Escasses núvols a una alçada de 4000 ft

TAF: EGNR 091103Z 0912/0921 15008KT 9999 FEW040

Observacions i pronòstics meteorològics de més de 4000 aeroports (METAR i TAF).

Les estacions disponibles són els punts grocs i vermells al mapa.

Posi el ratolí al punt desitjat per veure el nom de l'estació.

Feu clic per veure les observacions i els pronòstics meteorològics.

Per canviar el mapa: feu clic els botons verds amb una creu de color negre per apropar; al botó verd amb un guió per allunyar la imatge; o en les fletxes verdes per a mapes adjacents.


METAR-TAF: